Time;durP1;ratioP1;P1;durP2;ratioP2;P2;SDS_P1;SDS_P2;PMS_P1;PMS_P2;Temp;Humidity;BMP_temperature;BMP_pressure;BME280_temperature;BME280_humidity;BME280_pressure;Samples;Min_cycle;Max_cycle;Signal;HPM_P1;HPM_P2
2023/11/18 00:00:10;;;;;;;1.85;0.68;;;;;;;9.58;100.00;99854.13;5040777;28;20073;-50
2023/11/18 00:02:38;;;;;;;4.15;1.23;;;;;;;9.61;100.00;99841.59;5036042;28;20053;-44
2023/11/18 00:05:07;;;;;;;1.65;0.50;;;;;;;9.63;100.00;99839.25;5037072;28;20438;-43
2023/11/18 00:07:34;;;;;;;1.27;0.77;;;;;;;9.65;100.00;99831.41;5038290;28;20083;-44
2023/11/18 00:10:04;;;;;;;3.97;0.73;;;;;;;9.68;100.00;99817.66;5042374;28;20183;-44
2023/11/18 00:12:34;;;;;;;1.52;0.70;;;;;;;9.69;100.00;99812.91;5040771;28;20112;-44
2023/11/18 00:15:05;;;;;;;2.60;0.60;;;;;;;9.72;100.00;99801.94;5039688;28;20065;-44
2023/11/18 00:17:32;;;;;;;1.02;0.45;;;;;;;9.75;100.00;99803.19;5039030;28;20738;-44
2023/11/18 00:19:59;;;;;;;2.38;0.50;;;;;;;9.76;100.00;99791.78;5041992;28;20107;-43
2023/11/18 00:22:27;;;;;;;2.65;0.57;;;;;;;9.79;100.00;99787.50;5037892;28;20072;-47
2023/11/18 00:24:55;;;;;;;2.75;0.60;;;;;;;9.81;100.00;99787.94;5042164;28;20080;-45
2023/11/18 00:27:22;;;;;;;1.88;0.55;;;;;;;9.83;100.00;99763.47;5021165;28;20167;-46
2023/11/18 00:29:49;;;;;;;1.52;0.70;;;;;;;9.86;100.00;99767.47;5043856;28;20041;-44
2023/11/18 00:32:17;;;;;;;0.25;0.20;;;;;;;9.88;100.00;99741.06;5042480;28;20076;-43
2023/11/18 00:34:44;;;;;;;1.25;0.30;;;;;;;9.90;100.00;99727.66;5043879;28;20053;-43
2023/11/18 00:37:12;;;;;;;0.63;0.30;;;;;;;9.92;100.00;99730.09;5042180;28;20065;-47
2023/11/18 00:39:39;;;;;;;0.17;0.17;;;;;;;9.93;100.00;99732.47;5046041;28;20499;-44
2023/11/18 00:42:06;;;;;;;1.58;0.30;;;;;;;9.93;100.00;99735.25;5047016;28;20073;-45
2023/11/18 00:44:34;;;;;;;3.40;0.30;;;;;;;9.97;100.00;99733.34;5044684;28;20049;-44
2023/11/18 00:47:02;;;;;;;1.85;0.40;;;;;;;9.99;100.00;99716.38;5039868;28;20125;-50
2023/11/18 00:49:30;;;;;;;1.95;0.22;;;;;;;10.00;100.00;99716.03;5038559;28;20132;-44
2023/11/18 00:51:57;;;;;;;0.32;0.20;;;;;;;10.02;100.00;99696.31;5046688;28;20087;-44
2023/11/18 00:54:25;;;;;;;2.38;0.40;;;;;;;10.04;100.00;99696.72;5044849;28;20040;-45
2023/11/18 00:56:52;;;;;;;0.20;0.20;;;;;;;10.07;100.00;99687.72;5047770;28;20115;-43
2023/11/18 00:59:20;;;;;;;6.93;1.35;;;;;;;10.08;100.00;99690.13;5042839;28;20076;-45
2023/11/18 01:01:48;;;;;;;0.80;0.28;;;;;;;10.09;100.00;99690.91;5039531;28;20126;-43
2023/11/18 01:04:16;;;;;;;0.50;0.30;;;;;;;10.10;100.00;99681.44;5042540;28;20091;-46
2023/11/18 01:06:43;;;;;;;1.83;0.50;;;;;;;10.13;100.00;99675.22;5035014;28;20061;-44
2023/11/18 01:09:12;;;;;;;0.73;0.35;;;;;;;10.14;100.00;99672.06;5049488;28;20162;-44
2023/11/18 01:11:39;;;;;;;1.27;0.30;;;;;;;10.15;100.00;99670.09;5047513;28;20079;-45
2023/11/18 01:14:26;;;;;;;0.65;0.30;;;;;;;10.14;100.00;99661.00;5042620;28;20107;-44
2023/11/18 01:16:54;;;;;;;0.20;0.20;;;;;;;10.16;100.00;99661.47;5048323;28;20127;-44
2023/11/18 01:19:21;;;;;;;0.10;0.10;;;;;;;10.17;100.00;99654.75;5026936;28;20073;-44
2023/11/18 01:21:49;;;;;;;0.43;0.10;;;;;;;10.19;100.00;99657.94;5047658;28;20068;-43
2023/11/18 01:24:16;;;;;;;0.75;0.40;;;;;;;10.20;100.00;99653.19;5049839;28;20076;-44
2023/11/18 01:26:43;;;;;;;1.05;0.30;;;;;;;10.19;100.00;99651.63;5030539;28;20076;-44
2023/11/18 01:29:11;;;;;;;1.30;0.47;;;;;;;10.19;100.00;99646.09;5048718;28;20080;-44
2023/11/18 01:31:40;;;;;;;2.22;0.50;;;;;;;10.19;100.00;99643.31;5048958;28;20076;-44
2023/11/18 01:34:21;;;;;;;2.10;0.40;;;;;;;10.19;100.00;99638.56;5048539;28;20072;-44
2023/11/18 01:36:50;;;;;;;1.48;0.50;;;;;;;10.20;100.00;99631.88;5049177;28;20549;-44
2023/11/18 01:39:20;;;;;;;1.52;0.70;;;;;;;10.21;100.00;99633.50;5048951;28;20085;-43
2023/11/18 01:41:49;;;;;;;0.90;0.60;;;;;;;10.22;100.00;99640.59;5049683;28;20045;-44
2023/11/18 01:44:19;;;;;;;1.85;1.10;;;;;;;10.22;100.00;99623.19;5048991;28;20099;-43
2023/11/18 01:46:47;;;;;;;2.72;1.50;;;;;;;10.22;100.00;99629.53;5048393;28;20120;-43
2023/11/18 01:49:15;;;;;;;3.05;0.57;;;;;;;10.23;100.00;99625.59;5049087;28;20056;-43
2023/11/18 01:51:45;;;;;;;3.40;0.60;;;;;;;10.25;100.00;99617.72;5048449;28;20072;-47
2023/11/18 01:54:15;;;;;;;3.35;1.20;;;;;;;10.25;100.00;99628.78;5048136;28;20076;-48
2023/11/18 01:56:45;;;;;;;2.22;1.23;;;;;;;10.25;100.00;99623.25;5046931;28;20052;-44
2023/11/18 01:59:19;;;;;;;3.80;1.63;;;;;;;10.25;100.00;99617.72;5047917;28;20053;-50
2023/11/18 02:01:49;;;;;;;4.43;1.60;;;;;;;10.24;100.00;99616.16;5035832;28;20091;-44
2023/11/18 02:04:19;;;;;;;3.42;1.65;;;;;;;10.26;100.00;99619.34;5048671;28;20045;-44
2023/11/18 02:06:48;;;;;;;2.55;1.63;;;;;;;10.27;100.00;99614.63;5048530;28;20077;-44
2023/11/18 02:09:17;;;;;;;2.75;1.27;;;;;;;10.28;100.00;99621.72;5047530;28;20076;-44
2023/11/18 02:12:14;;;;;;;4.50;2.92;;;;;;;10.28;100.00;99611.47;5047443;28;20564;-45
2023/11/18 02:14:43;;;;;;;5.03;1.90;;;;;;;10.28;100.00;99611.47;5037901;28;20080;-44
2023/11/18 02:17:14;;;;;;;5.70;2.72;;;;;;;10.28;100.00;99605.94;5048649;28;20061;-44
2023/11/18 02:19:43;;;;;;;6.70;4.18;;;;;;;10.28;100.00;99600.41;5047872;28;20717;-44
2023/11/18 02:22:11;;;;;;;8.60;2.90;;;;;;;10.28;100.00;99597.63;5048003;28;20049;-44
2023/11/18 02:24:40;;;;;;;8.57;3.25;;;;;;;10.29;100.00;99595.66;5030177;28;20144;-44
2023/11/18 02:27:11;;;;;;;8.25;4.40;;;;;;;10.30;100.00;99591.72;5048265;28;20074;-44
2023/11/18 02:29:42;;;;;;;7.25;3.22;;;;;;;10.30;100.00;99586.19;5047843;28;20084;-44
2023/11/18 02:32:23;;;;;;;3.97;2.33;;;;;;;10.33;100.00;99586.25;5048172;28;20096;-44
2023/11/18 02:35:02;;;;;;;2.45;1.70;;;;;;;10.34;100.00;99587.84;5030219;28;20087;-46
2023/11/18 02:37:32;;;;;;;5.22;2.00;;;;;;;10.36;100.00;99582.75;5047319;28;20064;-43
2023/11/18 02:40:11;;;;;;;3.65;1.95;;;;;;;10.37;100.00;99583.53;5048061;28;20068;-48
2023/11/18 02:42:39;;;;;;;2.65;1.42;;;;;;;10.38;100.00;99572.09;5036406;28;20099;-45
2023/11/18 02:45:08;;;;;;;1.85;1.30;;;;;;;10.39;100.00;99570.94;5046173;28;20048;-44
2023/11/18 02:47:36;;;;;;;1.42;1.33;;;;;;;10.42;100.00;99571.34;5047551;28;20454;-45
2023/11/18 02:50:10;;;;;;;1.20;0.95;;;;;;;10.46;100.00;99573.00;5048041;28;20049;-44
2023/11/18 02:52:38;;;;;;;0.80;0.80;;;;;;;10.48;100.00;99564.34;5047770;28;20076;-44
2023/11/18 02:55:07;;;;;;;2.50;0.93;;;;;;;10.51;100.00;99550.53;5047479;28;20072;-46
2023/11/18 02:57:38;;;;;;;1.63;0.68;;;;;;;10.54;100.00;99551.78;5047337;28;20040;-45
2023/11/18 03:00:11;;;;;;;0.68;0.60;;;;;;;10.58;100.00;99550.66;5047499;28;20053;-43
2023/11/18 03:02:39;;;;;;;0.65;0.50;;;;;;;10.60;100.00;99545.53;5086139;22;20046;-46
2023/11/18 03:05:07;;;;;;;1.75;0.60;;;;;;;10.63;100.00;99539.25;4988511;28;20093;-44
2023/11/18 03:07:35;;;;;;;0.55;0.55;;;;;;;10.65;100.00;99528.59;4988235;28;20074;-44
2023/11/18 03:10:03;;;;;;;0.68;0.60;;;;;;;10.68;100.00;99524.28;4988403;28;20086;-44
2023/11/18 03:12:30;;;;;;;0.73;0.73;;;;;;;10.71;100.00;99523.53;4987977;28;20464;-45
2023/11/18 03:14:58;;;;;;;0.88;0.70;;;;;;;10.73;100.00;99533.06;4988535;28;20100;-45
2023/11/18 03:17:25;;;;;;;1.30;1.02;;;;;;;10.76;100.00;99537.03;4988196;28;20093;-43
2023/11/18 03:19:53;;;;;;;0.80;0.80;;;;;;;10.78;100.00;99534.69;4988245;28;20464;-44
2023/11/18 03:22:21;;;;;;;0.60;0.60;;;;;;;10.80;100.00;99538.69;4987786;28;20074;-44
2023/11/18 03:24:49;;;;;;;1.08;0.82;;;;;;;10.84;100.00;99539.53;4987931;28;20062;-43
2023/11/18 03:27:16;;;;;;;0.90;0.60;;;;;;;10.90;100.00;99528.94;4986708;28;20073;-44
2023/11/18 03:29:45;;;;;;;1.00;0.90;;;;;;;10.93;100.00;99519.88;4993354;28;20109;-48
2023/11/18 03:32:13;;;;;;;4.22;1.25;;;;;;;10.95;100.00;99515.56;4987145;28;20046;-46
2023/11/18 03:34:40;;;;;;;3.55;1.38;;;;;;;10.95;100.00;99517.53;4987189;28;20082;-47
2023/11/18 03:37:07;;;;;;;2.35;1.30;;;;;;;10.93;100.00;99503.25;4987109;28;20096;-43
2023/11/18 03:39:35;;;;;;;1.25;1.10;;;;;;;10.92;100.00;99502.47;4986149;28;20078;-43
2023/11/18 03:42:02;;;;;;;1.38;1.25;;;;;;;10.91;100.00;99516.66;4986800;28;20070;-44
2023/11/18 03:44:29;;;;;;;3.72;0.80;;;;;;;10.92;100.00;99516.31;4986568;28;20121;-44
2023/11/18 03:46:56;;;;;;;0.75;0.65;;;;;;;10.95;100.00;99489.81;4986780;28;20069;-44
2023/11/18 03:49:24;;;;;;;0.80;0.80;;;;;;;10.97;100.00;99512.41;4987085;28;20034;-44
2023/11/18 03:51:51;;;;;;;1.08;0.90;;;;;;;10.99;100.00;99508.06;4986510;28;20070;-44
2023/11/18 03:54:18;;;;;;;1.98;0.80;;;;;;;11.02;100.00;99512.06;4986508;28;20814;-47
2023/11/18 03:56:45;;;;;;;0.80;0.80;;;;;;;11.05;100.00;99510.50;4986516;28;20078;-44
2023/11/18 03:59:13;;;;;;;1.85;0.70;;;;;;;11.08;100.00;99504.22;4987368;28;20073;-49
2023/11/18 04:01:40;;;;;;;1.23;0.85;;;;;;;11.11;100.00;99509.00;4986841;28;20054;-44
2023/11/18 04:04:08;;;;;;;1.98;0.80;;;;;;;11.13;100.00;99496.34;4978902;28;20101;-44
2023/11/18 04:06:35;;;;;;;0.80;0.50;;;;;;;11.17;100.00;99502.75;4986995;28;20210;-44
2023/11/18 04:09:02;;;;;;;0.60;0.60;;;;;;;11.20;100.00;99481.81;4987430;28;20058;-44
2023/11/18 04:11:30;;;;;;;1.75;0.70;;;;;;;11.21;100.00;99492.50;4986858;28;20049;-45
2023/11/18 04:13:57;;;;;;;1.63;0.82;;;;;;;11.23;100.00;99495.66;4987277;28;20093;-48
2023/11/18 04:16:24;;;;;;;0.77;0.75;;;;;;;11.25;100.00;99487.78;4986954;28;20065;-46
2023/11/18 04:18:52;;;;;;;1.90;0.85;;;;;;;11.28;100.00;99487.00;4987242;28;20081;-44
2023/11/18 04:21:19;;;;;;;0.93;0.80;;;;;;;11.30;100.00;99483.88;4986900;28;20070;-44
2023/11/18 04:23:47;;;;;;;1.38;0.90;;;;;;;11.31;100.00;99489.03;4988172;28;20046;-44
2023/11/18 04:26:15;;;;;;;1.60;0.85;;;;;;;11.33;100.00;99497.75;4978861;28;20050;-44
2023/11/18 04:28:42;;;;;;;1.83;0.70;;;;;;;11.36;100.00;99493.41;4987121;28;21178;-44
2023/11/18 04:31:09;;;;;;;0.85;0.85;;;;;;;11.39;100.00;99503.75;4987021;28;20047;-44
2023/11/18 04:33:37;;;;;;;0.85;0.85;;;;;;;11.40;100.00;99489.53;4987332;28;20050;-44
2023/11/18 04:36:05;;;;;;;1.00;0.68;;;;;;;11.41;100.00;99491.09;4987184;28;20073;-44
2023/11/18 04:38:32;;;;;;;1.88;0.80;;;;;;;11.44;100.00;99500.63;4986854;28;20093;-43
2023/11/18 04:41:00;;;;;;;1.25;1.00;;;;;;;11.47;100.00;99486.00;4987206;28;20074;-46
2023/11/18 04:43:29;;;;;;;2.20;1.02;;;;;;;11.49;100.00;99489.22;4986802;28;20057;-44
2023/11/18 04:46:10;;;;;;;1.98;0.88;;;;;;;11.48;100.00;99484.84;4987390;28;20053;-47
2023/11/18 04:48:39;;;;;;;1.58;0.90;;;;;;;11.48;100.00;99471.78;4986521;28;20045;-44
2023/11/18 04:51:09;;;;;;;0.93;0.77;;;;;;;11.50;100.00;99469.44;4991629;28;20583;-44
2023/11/18 04:53:36;;;;;;;1.70;0.60;;;;;;;11.50;100.00;99463.09;4985036;28;20081;-43
2023/11/18 04:56:04;;;;;;;0.90;0.73;;;;;;;11.49;100.00;99458.75;4981731;28;20088;-47
2023/11/18 04:58:31;;;;;;;0.63;0.60;;;;;;;11.47;100.00;99472.97;4979389;28;20097;-44
2023/11/18 05:00:58;;;;;;;1.38;0.60;;;;;;;11.47;100.00;99470.19;4980524;28;20124;-44
2023/11/18 05:03:26;;;;;;;1.05;0.77;;;;;;;11.48;100.00;99468.22;4986342;28;20078;-44
2023/11/18 05:05:53;;;;;;;3.47;0.95;;;;;;;11.51;100.00;99456.38;4986986;28;20109;-46
2023/11/18 05:08:25;;;;;;;1.85;0.60;;;;;;;11.52;100.00;99458.75;4980657;28;20058;-46
2023/11/18 05:10:54;;;;;;;2.33;1.00;;;;;;;11.55;100.00;99457.19;4990041;28;20444;-44
2023/11/18 05:13:22;;;;;;;1.75;0.60;;;;;;;11.54;100.00;99467.47;4990857;28;20043;-46
2023/11/18 05:15:49;;;;;;;0.98;0.77;;;;;;;11.55;100.00;99454.41;4985814;28;20144;-45
2023/11/18 05:18:17;;;;;;;2.28;0.70;;;;;;;11.55;100.00;99468.28;4989786;28;20058;-44
2023/11/18 05:20:45;;;;;;;0.50;0.50;;;;;;;11.57;100.00;99480.56;4989290;28;20514;-47
2023/11/18 05:23:12;;;;;;;0.30;0.30;;;;;;;11.59;100.00;99469.91;4990673;28;20081;-44
2023/11/18 05:25:43;;;;;;;4.05;0.57;;;;;;;11.60;100.00;99474.25;4990499;28;20060;-47
2023/11/18 05:28:10;;;;;;;1.23;0.52;;;;;;;11.65;100.00;99472.34;4990381;28;20090;-45
2023/11/18 05:30:43;;;;;;;2.05;0.70;;;;;;;11.68;100.00;99454.91;4990059;28;20045;-44
2023/11/18 05:33:17;;;;;;;0.40;0.40;;;;;;;11.68;100.00;99452.94;4989564;28;20073;-44
2023/11/18 05:35:49;;;;;;;0.95;0.47;;;;;;;11.63;100.00;99454.09;4990266;28;20056;-44
2023/11/18 05:38:19;;;;;;;1.27;0.40;;;;;;;11.65;100.00;99447.38;4989892;28;20085;-44
2023/11/18 05:40:57;;;;;;;2.55;0.38;;;;;;;11.62;100.00;99444.19;4976356;28;20382;-44
2023/11/18 05:43:40;;;;;;;1.48;0.68;;;;;;;11.61;100.00;99456.47;4989734;28;20073;-44
2023/11/18 05:46:14;;;;;;;1.55;0.50;;;;;;;11.59;100.00;99444.16;4989909;28;20089;-44
2023/11/18 05:48:42;;;;;;;1.23;0.60;;;;;;;11.57;100.00;99439.00;4988525;28;20483;-46
2023/11/18 05:51:11;;;;;;;3.65;0.63;;;;;;;11.55;100.00;99426.69;4990502;28;20085;-45
2023/11/18 05:53:45;;;;;;;2.00;0.80;;;;;;;11.51;100.00;99425.88;4989203;28;20076;-44
2023/11/18 05:56:13;;;;;;;5.60;1.13;;;;;;;11.49;100.00;99420.72;4989881;28;20857;-46
2023/11/18 05:58:43;;;;;;;10.05;1.83;;;;;;;11.47;100.00;99423.06;4989943;28;20074;-44
2023/11/18 06:01:11;;;;;;;6.10;1.00;;;;;;;11.46;100.00;99427.00;4988926;28;20512;-44
2023/11/18 06:03:38;;;;;;;7.50;2.22;;;;;;;11.43;100.00;99422.25;4988214;28;20077;-44
2023/11/18 06:06:11;;;;;;;5.32;1.63;;;;;;;11.43;100.00;99415.91;4989401;28;20796;-43
2023/11/18 06:08:41;;;;;;;;;;;;;;;11.41;100.00;99415.50;4990109;28;20089;-43
2023/11/18 06:11:15;;;;;;;8.13;3.25;;;;;;;11.39;100.00;99421.41;4989687;28;19976;-44
2023/11/18 06:13:46;;;;;;;14.70;2.85;;;;;;;11.39;100.00;99426.97;4989454;28;20069;-44
2023/11/18 06:16:24;;;;;;;6.60;1.67;;;;;;;11.37;100.00;99422.97;4988542;28;20039;-44
2023/11/18 06:18:54;;;;;;;4.30;1.33;;;;;;;11.38;100.00;99411.53;4989734;28;20089;-44
2023/11/18 06:21:29;;;;;;;9.23;1.73;;;;;;;11.40;100.00;99433.31;4987385;28;20078;-47
2023/11/18 06:23:58;;;;;;;8.90;1.75;;;;;;;11.41;100.00;99421.06;4989061;28;20081;-43
2023/11/18 06:26:26;;;;;;;7.93;1.50;;;;;;;11.41;100.00;99410.75;4989072;28;20069;-43
2023/11/18 06:28:55;;;;;;;8.77;1.88;;;;;;;11.42;100.00;99398.50;4988165;28;20089;-43
2023/11/18 06:31:26;;;;;;;6.07;1.10;;;;;;;11.43;100.00;99394.53;5001491;28;20046;-43
2023/11/18 06:33:53;;;;;;;5.63;1.55;;;;;;;11.44;100.00;99407.22;4988889;28;20794;-43
2023/11/18 06:36:23;;;;;;;8.23;1.65;;;;;;;11.44;100.00;99411.94;4987951;28;20104;-43
2023/11/18 06:38:52;;;;;;;11.32;2.25;;;;;;;11.43;100.00;99410.38;4989476;28;20078;-43
2023/11/18 06:41:23;;;;;;;7.95;1.58;;;;;;;11.44;100.00;99403.63;4982150;28;20074;-45
2023/11/18 06:43:51;;;;;;;8.37;2.07;;;;;;;11.43;100.00;99400.09;4984217;28;20081;-43
2023/11/18 06:46:23;;;;;;;6.13;1.83;;;;;;;11.43;100.00;99411.19;4986613;28;20854;-43
2023/11/18 06:48:54;;;;;;;9.57;1.92;;;;;;;11.45;100.00;99411.59;4986846;28;20105;-47
2023/11/18 06:51:24;;;;;;;13.70;2.63;;;;;;;11.48;100.00;99408.03;4987736;28;20100;-44
2023/11/18 06:53:54;;;;;;;13.95;2.63;;;;;;;11.49;100.00;99398.53;4987905;28;20507;-43
2023/11/18 06:56:26;;;;;;;9.80;1.90;;;;;;;11.50;100.00;99394.59;4987150;28;20743;-48
2023/11/18 06:58:54;;;;;;;6.40;1.98;;;;;;;11.54;100.00;99400.94;4988287;28;20109;-43
2023/11/18 07:01:21;;;;;;;8.95;2.85;;;;;;;11.59;100.00;99399.81;4987056;28;20081;-44
2023/11/18 07:03:52;;;;;;;10.70;2.15;;;;;;;11.61;100.00;99403.78;4988395;28;20587;-43
2023/11/18 07:06:22;;;;;;;11.17;2.30;;;;;;;11.66;100.00;99424.00;4987405;28;20078;-43
2023/11/18 07:08:51;;;;;;;10.45;2.80;;;;;;;11.69;100.00;99428.81;4988624;28;20481;-43
2023/11/18 07:11:20;;;;;;;12.15;2.80;;;;;;;11.70;100.00;99431.22;4987729;28;20073;-46
2023/11/18 07:13:49;;;;;;;7.95;2.13;;;;;;;11.71;100.00;99416.16;4988320;28;20050;-43
2023/11/18 07:16:16;;;;;;;12.95;2.42;;;;;;;11.73;100.00;99402.69;4987615;28;20091;-43
2023/11/18 07:18:43;;;;;;;15.48;3.08;;;;;;;11.75;100.00;99399.56;4987817;28;20196;-43
2023/11/18 07:21:11;;;;;;;10.98;1.95;;;;;;;11.71;100.00;99401.50;4987212;28;20073;-44
2023/11/18 07:23:38;;;;;;;13.50;3.13;;;;;;;11.70;100.00;99408.25;4988038;28;20058;-44
2023/11/18 07:26:06;;;;;;;6.90;2.08;;;;;;;11.68;100.00;99400.25;4987989;28;20084;-44
2023/11/18 07:28:33;;;;;;;15.55;4.18;;;;;;;11.68;100.00;99407.78;4988269;28;20098;-47
2023/11/18 07:31:04;;;;;;;11.98;2.40;;;;;;;11.62;100.00;99402.59;4987696;28;20073;-47
2023/11/18 07:33:32;;;;;;;10.60;2.22;;;;;;;11.60;100.00;99410.50;4986985;28;20086;-44
2023/11/18 07:36:00;;;;;;;9.95;2.15;;;;;;;11.55;100.00;99407.28;4987411;28;20073;-44
2023/11/18 07:38:27;;;;;;;11.40;2.38;;;;;;;11.51;100.00;99407.28;4987358;28;20108;-44
2023/11/18 07:40:56;;;;;;;16.30;2.42;;;;;;;11.50;100.00;99419.53;4987955;28;20082;-43
2023/11/18 07:43:24;;;;;;;11.00;2.63;;;;;;;11.49;100.00;99404.06;4986684;28;20042;-44
2023/11/18 07:45:53;;;;;;;13.57;2.88;;;;;;;11.47;100.00;99403.66;4987011;28;20093;-45
2023/11/18 07:48:20;;;;;;;12.73;3.05;;;;;;;11.46;100.00;99413.16;4987309;28;20536;-44
2023/11/18 07:50:48;;;;;;;14.90;3.25;;;;;;;11.45;100.00;99408.81;4987533;28;20065;-45
2023/11/18 07:53:15;;;;;;;10.60;3.45;;;;;;;11.43;100.00;99405.63;4987145;28;20485;-46
2023/11/18 07:55:44;;;;;;;10.98;2.80;;;;;;;11.44;100.00;99412.75;4986819;28;20109;-43
2023/11/18 07:58:12;;;;;;;15.73;3.55;;;;;;;11.45;100.00;99414.34;4987109;28;20611;-44
2023/11/18 08:00:40;;;;;;;16.88;3.67;;;;;;;11.43;100.00;99408.41;4987372;28;20058;-44
2023/11/18 08:03:13;;;;;;;13.27;4.28;;;;;;;11.40;100.00;99403.63;4983694;28;20459;-47
2023/11/18 08:05:45;;;;;;;15.13;5.00;;;;;;;11.39;100.00;99407.56;4986445;28;20081;-44
2023/11/18 08:08:13;;;;;;;13.32;3.17;;;;;;;11.37;100.00;99401.63;4987090;28;20086;-48
2023/11/18 08:10:42;;;;;;;17.25;4.15;;;;;;;11.37;100.00;99401.63;4987272;28;20102;-47
2023/11/18 08:13:10;;;;;;;18.80;4.20;;;;;;;11.37;100.00;99407.16;4986340;28;20520;-44
2023/11/18 08:15:39;;;;;;;14.05;3.50;;;;;;;11.35;100.00;99405.94;4993836;28;20550;-44
2023/11/18 08:18:07;;;;;;;13.93;3.45;;;;;;;11.36;100.00;99407.53;4986981;28;20520;-44
2023/11/18 08:20:35;;;;;;;17.88;3.90;;;;;;;11.35;100.00;99420.59;4987224;28;20085;-44
2023/11/18 08:23:04;;;;;;;18.55;3.05;;;;;;;11.37;100.00;99415.47;4983547;28;20104;-46
2023/11/18 08:25:35;;;;;;;16.52;3.92;;;;;;;11.38;100.00;99425.38;4986993;28;20082;-45
2023/11/18 08:28:06;;;;;;;17.80;3.72;;;;;;;11.37;100.00;99418.25;4980236;28;20081;-47
2023/11/18 08:30:34;;;;;;;18.25;4.95;;;;;;;11.35;100.00;99415.06;4986648;28;20121;-44
2023/11/18 08:33:04;;;;;;;14.18;3.33;;;;;;;11.36;100.00;99419.41;4984167;28;20130;-46
2023/11/18 08:35:32;;;;;;;22.70;4.40;;;;;;;11.35;100.00;99420.59;4986721;28;20073;-44
2023/11/18 08:38:01;;;;;;;13.70;3.15;;;;;;;11.37;100.00;99429.31;4987914;28;20086;-44
2023/11/18 08:40:29;;;;;;;17.45;4.95;;;;;;;11.38;100.00;99421.81;4986853;28;20116;-44
2023/11/18 08:42:57;;;;;;;20.80;4.00;;;;;;;11.37;100.00;99417.44;4987188;28;20074;-44
2023/11/18 08:45:28;;;;;;;12.45;2.92;;;;;;;11.39;100.00;99423.38;4991124;28;20062;-46
2023/11/18 08:47:58;;;;;;;20.33;3.35;;;;;;;11.41;100.00;99429.38;4991514;28;20093;-44
2023/11/18 08:50:26;;;;;;;12.82;3.13;;;;;;;11.44;100.00;99426.59;4990734;28;20073;-45
2023/11/18 08:52:58;;;;;;;16.48;3.03;;;;;;;11.49;100.00;99422.72;4991097;28;20078;-48
2023/11/18 08:55:39;;;;;;;13.48;2.88;;;;;;;11.53;100.00;99420.75;4982283;28;20074;-44
2023/11/18 08:58:27;;;;;;;12.85;2.85;;;;;;;11.57;100.00;99411.28;4990500;28;20073;-47
2023/11/18 09:01:13;;;;;;;12.60;3.00;;;;;;;11.62;100.00;99408.13;4991206;28;20899;-46
2023/11/18 09:03:52;;;;;;;17.25;3.35;;;;;;;11.65;100.00;99403.03;4990391;28;20082;-44
2023/11/18 09:06:27;;;;;;;13.80;2.78;;;;;;;11.69;100.00;99401.91;4988214;28;20074;-45
2023/11/18 09:08:58;;;;;;;17.73;3.10;;;;;;;11.73;100.00;99401.94;4991012;28;20058;-45
2023/11/18 09:11:32;;;;;;;17.92;3.33;;;;;;;11.75;100.00;99399.56;4990090;28;20081;-45
2023/11/18 09:14:00;;;;;;;14.57;2.92;;;;;;;11.77;100.00;99397.19;4990544;28;20116;-44
2023/11/18 09:16:29;;;;;;;20.05;2.70;;;;;;;11.80;100.00;99408.31;4989874;28;20466;-44
2023/11/18 09:19:02;;;;;;;23.88;3.47;;;;;;;11.83;100.00;99407.56;4990737;28;20382;-48
2023/11/18 09:21:35;;;;;;;9.55;2.70;;;;;;;11.87;100.00;99383.41;4990959;28;20055;-44
2023/11/18 09:24:07;;;;;;;14.82;2.63;;;;;;;11.93;100.00;99372.75;4990525;28;20098;-44
2023/11/18 09:26:35;;;;;;;20.83;3.47;;;;;;;11.97;100.00;99363.25;4989888;28;20071;-44
2023/11/18 09:29:03;;;;;;;19.60;3.00;;;;;;;12.03;100.00;99372.00;5004813;28;20046;-44
2023/11/18 09:31:33;;;;;;;17.50;3.00;;;;;;;12.05;100.00;99375.16;4987554;28;20081;-44
2023/11/18 09:34:01;;;;;;;18.70;4.78;;;;;;;12.08;100.00;99382.72;4987209;28;20077;-44
2023/11/18 09:36:28;;;;;;;20.67;3.00;;;;;;;12.11;100.00;99373.63;4986414;28;20070;-44
2023/11/18 09:38:56;;;;;;;15.85;4.10;;;;;;;12.16;100.00;99370.47;4989508;28;20100;-45
2023/11/18 09:41:26;;;;;;;14.05;2.90;;;;;;;12.20;100.00;99371.31;4989053;28;20144;-43
2023/11/18 09:43:56;;;;;;;18.30;3.75;;;;;;;12.25;100.00;99373.69;4988460;28;20081;-44
2023/11/18 09:46:27;;;;;;;15.75;3.40;;;;;;;12.26;100.00;99371.72;4988966;28;20101;-44
2023/11/18 09:49:17;;;;;;;21.23;4.15;;;;;;;12.29;100.00;99368.94;4987871;28;20054;-45
2023/11/18 09:51:47;;;;;;;18.42;3.28;;;;;;;12.31;100.00;99371.34;4988831;28;20054;-44
2023/11/18 09:54:23;;;;;;;17.48;3.70;;;;;;;12.33;100.00;99369.78;4988922;28;20078;-43
2023/11/18 09:57:12;;;;;;;16.38;3.17;;;;;;;12.35;100.00;99383.25;4989147;28;20074;-44
2023/11/18 10:00:26;;;;;;;12.50;3.10;;;;;;;12.37;100.00;99372.53;4989064;28;20073;-42
2023/11/18 10:02:56;;;;;;;26.02;4.10;;;;;;;12.38;100.00;99366.63;4989069;28;20089;-43
2023/11/18 10:05:26;;;;;;;27.40;6.28;;;;;;;12.39;100.00;99379.28;4989955;28;20073;-43
2023/11/18 10:07:57;;;;;;;18.92;4.38;;;;;;;12.40;100.00;99380.91;4989413;28;20096;-46
2023/11/18 10:10:26;;;;;;;15.07;4.47;;;;;;;12.43;100.00;99385.69;4989517;28;20050;-44
2023/11/18 10:12:57;;;;;;;21.58;3.53;;;;;;;12.46;100.00;99379.34;4989024;28;20070;-43
2023/11/18 10:15:27;;;;;;;16.23;4.65;;;;;;;12.49;100.00;99380.53;4987846;28;20074;-43
2023/11/18 10:18:06;;;;;;;19.75;3.80;;;;;;;12.51;100.00;99378.97;4987275;28;20066;-46
2023/11/18 10:20:50;;;;;;;19.38;4.70;;;;;;;12.54;100.00;99380.97;4982893;28;20080;-44
2023/11/18 10:23:20;;;;;;;23.05;3.97;;;;;;;12.58;100.00;99380.94;4983379;28;20074;-45
2023/11/18 10:25:52;;;;;;;22.83;3.13;;;;;;;12.60;100.00;99389.72;4992943;28;20112;-44
2023/11/18 10:28:33;;;;;;;18.85;4.93;;;;;;;12.63;100.00;99389.69;4987089;28;20077;-45
2023/11/18 10:31:04;;;;;;;17.48;3.25;;;;;;;12.64;100.00;99388.53;4983054;28;20097;-43
2023/11/18 10:33:37;;;;;;;17.00;2.97;;;;;;;12.67;100.00;99390.53;4986305;28;20093;-43
2023/11/18 10:36:12;;;;;;;23.33;4.38;;;;;;;12.70;100.00;99384.19;4985405;28;20042;-43
2023/11/18 10:38:49;;;;;;;14.60;3.55;;;;;;;12.71;100.00;99396.88;4987569;28;20093;-44
2023/11/18 10:41:19;;;;;;;10.38;3.13;;;;;;;12.75;100.00;99391.34;4985872;28;20051;-43
2023/11/18 10:43:48;;;;;;;20.08;3.78;;;;;;;12.77;100.00;99389.75;4985880;28;20081;-43
2023/11/18 10:46:16;;;;;;;20.85;3.00;;;;;;;12.80;100.00;99388.16;4985591;28;20082;-44
2023/11/18 10:48:47;;;;;;;26.73;3.53;;;;;;;12.83;100.00;99385.41;4986086;28;20104;-43
2023/11/18 10:51:19;;;;;;;16.85;3.63;;;;;;;12.86;100.00;99388.59;4985894;28;20077;-47
2023/11/18 10:53:58;;;;;;;24.20;4.45;;;;;;;12.88;100.00;99388.97;4986145;28;20057;-46
2023/11/18 10:56:28;;;;;;;18.95;3.65;;;;;;;12.90;100.00;99378.25;4985008;28;20148;-44
2023/11/18 10:59:08;;;;;;;30.48;4.65;;;;;;;12.91;100.00;99364.00;4985841;28;20074;-47
2023/11/18 11:01:48;;;;;;;21.95;3.75;;;;;;;12.93;100.00;99369.16;4984001;28;20081;-43
2023/11/18 11:04:20;;;;;;;23.05;4.35;;;;;;;12.93;100.00;99369.94;4986125;28;20074;-44
2023/11/18 11:06:56;;;;;;;20.45;3.28;;;;;;;12.97;100.00;99369.97;4985088;28;20512;-44
2023/11/18 11:09:27;;;;;;;18.80;3.13;;;;;;;13.01;100.00;99362.41;4986062;28;20723;-44
2023/11/18 11:12:03;;;;;;;19.67;3.28;;;;;;;13.04;100.00;99350.50;4985926;28;20086;-44
2023/11/18 11:14:41;;;;;;;15.55;2.97;;;;;;;13.06;100.00;99356.47;4986167;28;20572;-47
2023/11/18 11:17:15;;;;;;;15.57;2.78;;;;;;;13.08;100.00;99354.91;4986503;28;20050;-45
2023/11/18 11:20:11;;;;;;;13.77;2.78;;;;;;;13.10;100.00;99351.75;4986069;28;20078;-44
2023/11/18 11:23:07;;;;;;;17.90;2.90;;;;;;;13.09;100.00;99355.72;4983379;28;20069;-45
2023/11/18 11:25:46;;;;;;;13.80;2.80;;;;;;;13.08;100.00;99362.47;4985982;28;20062;-43
2023/11/18 11:28:20;;;;;;;18.00;2.15;;;;;;;13.08;100.00;99370.81;4986554;28;20117;-49
2023/11/18 11:31:03;;;;;;;13.60;3.33;;;;;;;13.09;100.00;99358.50;4985657;28;20078;-46
2023/11/18 11:33:46;;;;;;;12.75;2.08;;;;;;;13.08;100.00;99348.59;4986271;28;20089;-45
2023/11/18 11:36:22;;;;;;;7.70;2.33;;;;;;;13.06;100.00;99337.00;4979675;28;20091;-50